Albion, Rhode Island
Current Conditions -  °F | °C
As of 12:35 PM on Friday 31 Oct 2014 (Local Time) from KSFZ Reporting Station
Overcast Overcast  
Wind Chill: 12°   Ceiling: 4800
Heat Index: 12°   Visibility: 10mi
Dew Point:   Wind: 8mph
Humidity: 51%   Direction: 70°ENE
Pressure: 29.98"   Gusts: NA
Location:  41.95°N, 71.45°W
Report Text: KSFZ 311635Z 07007KT 10SM FEW029 BKN048 OVC055 12/02 A2998 RMK AO1
Loading
Personal Weather Stations






























Interactive Weather Map
Tropical Storm Tracking
New forecast layout! Learn more

10-Day Weather Forecast

Advertisements
Track Severe Weather on mobile